<?xml version="1.0" encoding="UTF-8" standalone="no" ?>
<gpx xmlns="http://www.topografix.com/GPX/1/1" xmlns:xsi="http://www.w3.org/2001/XMLSchema-instance" xsi:schemaLocation="http://www.topografix.com/GPX/1/1 http://www.topografix.com/GPX/1/1/gpx.xsd" version="1.1" creator="VisuGPX - https://www.visugpx.com">
  <metadata>
    <name>Parcours Auvergne N°3</name>
    <desc><![CDATA[Auvergne Juin 2017- Parcours N°3]]></desc>
  </metadata>
  <trk>
    <name><![CDATA[Rencontre Sobre jour 1]]></name>
    <trkseg>
      <trkpt lat="45.66961" lon="3.00076">
        <ele>828.40002441406</ele>
        <time>2013-06-15T08:17:50Z</time>
      </trkpt>
      <trkpt lat="45.67119" lon="2.99939">
        <ele>831.20001220703</ele>
        <time>2013-06-15T08:21:10Z</time>
      </trkpt>
      <trkpt lat="45.67287" lon="2.99867">
        <ele>838.59997558594</ele>
        <time>2013-06-15T08:22:06Z</time>
      </trkpt>
      <trkpt lat="45.67394" lon="2.99743">
        <ele>842.59997558594</ele>
        <time>2013-06-15T08:22:54Z</time>
      </trkpt>
      <trkpt lat="45.67441" lon="2.9985">
        <ele>854</ele>
        <time>2013-06-15T08:23:38Z</time>
      </trkpt>
      <trkpt lat="45.67505" lon="2.99816">
        <ele>860</ele>
        <time>2013-06-15T08:24:11Z</time>
      </trkpt>
      <trkpt lat="45.67529" lon="2.99792">
        <ele>864.79998779297</ele>
        <time>2013-06-15T08:24:29Z</time>
      </trkpt>
      <trkpt lat="45.67585" lon="2.99771">
        <ele>867</ele>
        <time>2013-06-15T08:24:54Z</time>
      </trkpt>
      <trkpt lat="45.67695" lon="2.99813">
        <ele>879.59997558594</ele>
        <time>2013-06-15T08:25:52Z</time>
      </trkpt>
      <trkpt lat="45.67781" lon="2.99806">
        <ele>881.79998779297</ele>
        <time>2013-06-15T08:26:26Z</time>
      </trkpt>
      <trkpt lat="45.67731" lon="3.0003">
        <ele>892.40002441406</ele>
        <time>2013-06-15T08:27:35Z</time>
      </trkpt>
      <trkpt lat="45.67738" lon="3.00248">
        <ele>902.59997558594</ele>
        <time>2013-06-15T08:28:31Z</time>
      </trkpt>
      <trkpt lat="45.68157" lon="3.00458">
        <ele>956.40002441406</ele>
        <time>2013-06-15T08:32:49Z</time>
      </trkpt>
      <trkpt lat="45.68211" lon="3.00503">
        <ele>963</ele>
        <time>2013-06-15T08:33:21Z</time>
      </trkpt>
      <trkpt lat="45.68483" lon="3.00615">
        <ele>977.40002441406</ele>
        <time>2013-06-15T08:35:07Z</time>
      </trkpt>
      <trkpt lat="45.68567" lon="3.0068">
        <ele>977.40002441406</ele>
        <time>2013-06-15T08:35:39Z</time>
      </trkpt>
      <trkpt lat="45.68646" lon="3.00698">
        <ele>977.40002441406</ele>
        <time>2013-06-15T08:36:07Z</time>
      </trkpt>
      <trkpt lat="45.68786" lon="3.00619">
        <ele>983.79998779297</ele>
        <time>2013-06-15T08:37:24Z</time>
      </trkpt>
      <trkpt lat="45.68917" lon="3.00543">
        <ele>983.79998779297</ele>
        <time>2013-06-15T08:38:03Z</time>
      </trkpt>
      <trkpt lat="45.69022" lon="3.00545">
        <ele>978.59997558594</ele>
        <time>2013-06-15T08:38:19Z</time>
      </trkpt>
      <trkpt lat="45.69125" lon="3.00538">
        <ele>972.20001220703</ele>
        <time>2013-06-15T08:38:33Z</time>
      </trkpt>
      <trkpt lat="45.69292" lon="3.00387">
        <ele>966.20001220703</ele>
        <time>2013-06-15T08:39:21Z</time>
      </trkpt>
      <trkpt lat="45.69272" lon="3.00454">
        <ele>970.20001220703</ele>
        <time>2013-06-15T08:39:51Z</time>
      </trkpt>
      <trkpt lat="45.69108" lon="3.00706">
        <ele>995.40002441406</ele>
        <time>2013-06-15T08:41:48Z</time>
      </trkpt>
      <trkpt lat="45.69099" lon="3.00725">
        <ele>998.40002441406</ele>
        <time>2013-06-15T08:42:02Z</time>
      </trkpt>
      <trkpt lat="45.68969" lon="3.00869">
        <ele>1011.4000244141</ele>
        <time>2013-06-15T08:43:48Z</time>
      </trkpt>
      <trkpt lat="45.68948" lon="3.00925">
        <ele>1015.4000244141</ele>
        <time>2013-06-15T08:44:09Z</time>
      </trkpt>
      <trkpt lat="45.68887" lon="3.01299">
        <ele>1017.5999755859</ele>
        <time>2013-06-15T08:45:20Z</time>
      </trkpt>
      <trkpt lat="45.68863" lon="3.01409">
        <ele>1017.5999755859</ele>
        <time>2013-06-15T08:45:37Z</time>
      </trkpt>
      <trkpt lat="45.68772" lon="3.01727">
        <ele>1006</ele>
        <time>2013-06-15T08:48:21Z</time>
      </trkpt>
      <trkpt lat="45.6874" lon="3.02028">
        <ele>990</ele>
        <time>2013-06-15T08:48:58Z</time>
      </trkpt>
      <trkpt lat="45.68709" lon="3.02032">
        <ele>986.79998779297</ele>
        <time>2013-06-15T08:49:03Z</time>
      </trkpt>
      <trkpt lat="45.6865" lon="3.02023">
        <ele>983</ele>
        <time>2013-06-15T08:49:11Z</time>
      </trkpt>
      <trkpt lat="45.68609" lon="3.0202">
        <ele>980.79998779297</ele>
        <time>2013-06-15T08:49:16Z</time>
      </trkpt>
      <trkpt lat="45.68212" lon="3.01986">
        <ele>963.59997558594</ele>
        <time>2013-06-15T08:50:15Z</time>
      </trkpt>
      <trkpt lat="45.68247" lon="3.02446">
        <ele>955.40002441406</ele>
        <time>2013-06-15T08:52:58Z</time>
      </trkpt>
      <trkpt lat="45.68219" lon="3.02491">
        <ele>953.79998779297</ele>
        <time>2013-06-15T08:53:05Z</time>
      </trkpt>
      <trkpt lat="45.68151" lon="3.02711">
        <ele>950.20001220703</ele>
        <time>2013-06-15T08:53:31Z</time>
      </trkpt>
      <trkpt lat="45.68156" lon="3.02898">
        <ele>952.59997558594</ele>
        <time>2013-06-15T08:55:40Z</time>
      </trkpt>
      <trkpt lat="45.68166" lon="3.0327">
        <ele>942.20001220703</ele>
        <time>2013-06-15T08:56:26Z</time>
      </trkpt>
      <trkpt lat="45.68193" lon="3.03356">
        <ele>935.40002441406</ele>
        <time>2013-06-15T08:56:34Z</time>
      </trkpt>
      <trkpt lat="45.68179" lon="3.03393">
        <ele>932.79998779297</ele>
        <time>2013-06-15T08:56:38Z</time>
      </trkpt>
      <trkpt lat="45.68066" lon="3.0344">
        <ele>923.40002441406</ele>
        <time>2013-06-15T08:56:54Z</time>
      </trkpt>
      <trkpt lat="45.68027" lon="3.04226">
        <ele>898</ele>
        <time>2013-06-15T08:58:16Z</time>
      </trkpt>
      <trkpt lat="45.68081" lon="3.04294">
        <ele>894.79998779297</ele>
        <time>2013-06-15T08:58:27Z</time>
      </trkpt>
      <trkpt lat="45.68094" lon="3.04357">
        <ele>892.40002441406</ele>
        <time>2013-06-15T08:58:33Z</time>
      </trkpt>
      <trkpt lat="45.6812" lon="3.04524">
        <ele>879.59997558594</ele>
        <time>2013-06-15T08:58:48Z</time>
      </trkpt>
      <trkpt lat="45.68043" lon="3.04759">
        <ele>859.40002441406</ele>
        <time>2013-06-15T08:59:12Z</time>
      </trkpt>
      <trkpt lat="45.68049" lon="3.04791">
        <ele>855.40002441406</ele>
        <time>2013-06-15T08:59:17Z</time>
      </trkpt>
      <trkpt lat="45.67999" lon="3.04931">
        <ele>848.20001220703</ele>
        <time>2013-06-15T09:00:00Z</time>
      </trkpt>
      <trkpt lat="45.6799" lon="3.04807">
        <ele>840.79998779297</ele>
        <time>2013-06-15T09:00:27Z</time>
      </trkpt>
      <trkpt lat="45.6798" lon="3.04739">
        <ele>833</ele>
        <time>2013-06-15T09:00:37Z</time>
      </trkpt>
      <trkpt lat="45.67927" lon="3.04577">
        <ele>827.40002441406</ele>
        <time>2013-06-15T09:02:22Z</time>
      </trkpt>
      <trkpt lat="45.67835" lon="3.04485">
        <ele>819.40002441406</ele>
        <time>2013-06-15T09:03:08Z</time>
      </trkpt>
      <trkpt lat="45.67747" lon="3.0427">
        <ele>821.59997558594</ele>
        <time>2013-06-15T09:03:49Z</time>
      </trkpt>
      <trkpt lat="45.67716" lon="3.04209">
        <ele>819.40002441406</ele>
        <time>2013-06-15T09:03:57Z</time>
      </trkpt>
      <trkpt lat="45.67697" lon="3.04164">
        <ele>817.59997558594</ele>
        <time>2013-06-15T09:04:02Z</time>
      </trkpt>
      <trkpt lat="45.67612" lon="3.03908">
        <ele>797</ele>
        <time>2013-06-15T09:04:32Z</time>
      </trkpt>
      <trkpt lat="45.67496" lon="3.03743">
        <ele>781.40002441406</ele>
        <time>2013-06-15T09:04:57Z</time>
      </trkpt>
      <trkpt lat="45.67476" lon="3.03725">
        <ele>775.40002441406</ele>
        <time>2013-06-15T09:05:05Z</time>
      </trkpt>
      <trkpt lat="45.67418" lon="3.03777">
        <ele>769</ele>
        <time>2013-06-15T09:06:25Z</time>
      </trkpt>
      <trkpt lat="45.67408" lon="3.03885">
        <ele>761.40002441406</ele>
        <time>2013-06-15T09:06:39Z</time>
      </trkpt>
      <trkpt lat="45.6735" lon="3.04022">
        <ele>751.59997558594</ele>
        <time>2013-06-15T09:06:56Z</time>
      </trkpt>
      <trkpt lat="45.67315" lon="3.04134">
        <ele>743.79998779297</ele>
        <time>2013-06-15T09:07:07Z</time>
      </trkpt>
      <trkpt lat="45.67297" lon="3.04192">
        <ele>737.20001220703</ele>
        <time>2013-06-15T09:07:12Z</time>
      </trkpt>
      <trkpt lat="45.67193" lon="3.04476">
        <ele>706.20001220703</ele>
        <time>2013-06-15T09:07:44Z</time>
      </trkpt>
      <trkpt lat="45.67149" lon="3.04489">
        <ele>703.40002441406</ele>
        <time>2013-06-15T09:07:51Z</time>
      </trkpt>
      <trkpt lat="45.67083" lon="3.0449">
        <ele>695.79998779297</ele>
        <time>2013-06-15T09:08:05Z</time>
      </trkpt>
      <trkpt lat="45.67008" lon="3.04517">
        <ele>680.59997558594</ele>
        <time>2013-06-15T09:08:31Z</time>
      </trkpt>
      <trkpt lat="45.66996" lon="3.04567">
        <ele>678.20001220703</ele>
        <time>2013-06-15T09:08:42Z</time>
      </trkpt>
      <trkpt lat="45.66908" lon="3.04547">
        <ele>665.79998779297</ele>
        <time>2013-06-15T09:08:57Z</time>
      </trkpt>
      <trkpt lat="45.66827" lon="3.04694">
        <ele>652.40002441406</ele>
        <time>2013-06-15T09:11:05Z</time>
      </trkpt>
      <trkpt lat="45.66805" lon="3.04668">
        <ele>652.40002441406</ele>
        <time>2013-06-15T09:11:15Z</time>
      </trkpt>
      <trkpt lat="45.66763" lon="3.04617">
        <ele>646.20001220703</ele>
        <time>2013-06-15T09:11:25Z</time>
      </trkpt>
      <trkpt lat="45.66728" lon="3.04583">
        <ele>634.20001220703</ele>
        <time>2013-06-15T09:11:35Z</time>
      </trkpt>
      <trkpt lat="45.66727" lon="3.04577">
        <ele>630.40002441406</ele>
        <time>2013-06-15T09:11:39Z</time>
      </trkpt>
      <trkpt lat="45.66723" lon="3.04749">
        <ele>626.20001220703</ele>
        <time>2013-06-15T09:14:03Z</time>
      </trkpt>
      <trkpt lat="45.66768" lon="3.04823">
        <ele>625.79998779297</ele>
        <time>2013-06-15T09:14:16Z</time>
      </trkpt>
      <trkpt lat="45.668" lon="3.04953">
        <ele>621.20001220703</ele>
        <time>2013-06-15T09:14:30Z</time>
      </trkpt>
      <trkpt lat="45.66823" lon="3.0531">
        <ele>612.79998779297</ele>
        <time>2013-06-15T09:15:09Z</time>
      </trkpt>
      <trkpt lat="45.6693" lon="3.05583">
        <ele>607.40002441406</ele>
        <time>2013-06-15T09:17:44Z</time>
      </trkpt>
      <trkpt lat="45.66933" lon="3.05624">
        <ele>605.40002441406</ele>
        <time>2013-06-15T09:17:49Z</time>
      </trkpt>
      <trkpt lat="45.6699" lon="3.05715">
        <ele>605.40002441406</ele>
        <time>2013-06-15T09:18:06Z</time>
      </trkpt>
      <trkpt lat="45.67164" lon="3.05838">
        <ele>605.79998779297</ele>
        <time>2013-06-15T09:20:35Z</time>
      </trkpt>
      <trkpt lat="45.67344" lon="3.05852">
        <ele>624.59997558594</ele>
        <time>2013-06-15T09:22:00Z</time>
      </trkpt>
      <trkpt lat="45.67385" lon="3.06012">
        <ele>637.40002441406</ele>
        <time>2013-06-15T09:23:49Z</time>
      </trkpt>
      <trkpt lat="45.67406" lon="3.06032">
        <ele>637.40002441406</ele>
        <time>2013-06-15T09:24:01Z</time>
      </trkpt>
      <trkpt lat="45.6748" lon="3.06107">
        <ele>643.59997558594</ele>
        <time>2013-06-15T09:24:46Z</time>
      </trkpt>
      <trkpt lat="45.67499" lon="3.06166">
        <ele>644.59997558594</ele>
        <time>2013-06-15T09:25:00Z</time>
      </trkpt>
      <trkpt lat="45.67523" lon="3.06249">
        <ele>645.79998779297</ele>
        <time>2013-06-15T09:25:17Z</time>
      </trkpt>
      <trkpt lat="45.67609" lon="3.06867">
        <ele>677.79998779297</ele>
        <time>2013-06-15T09:38:55Z</time>
      </trkpt>
      <trkpt lat="45.67611" lon="3.0699">
        <ele>677.79998779297</ele>
        <time>2013-06-15T09:39:27Z</time>
      </trkpt>
      <trkpt lat="45.67614" lon="3.06877">
        <ele>677.79998779297</ele>
        <time>2013-06-15T09:39:53Z</time>
      </trkpt>
      <trkpt lat="45.6786" lon="3.0683">
        <ele>677.79998779297</ele>
        <time>2013-06-15T09:41:06Z</time>
      </trkpt>
      <trkpt lat="45.68166" lon="3.06879">
        <ele>703</ele>
        <time>2013-06-15T09:43:01Z</time>
      </trkpt>
      <trkpt lat="45.68364" lon="3.07016">
        <ele>735.40002441406</ele>
        <time>2013-06-15T09:55:25Z</time>
      </trkpt>
      <trkpt lat="45.6839" lon="3.07011">
        <ele>735.40002441406</ele>
        <time>2013-06-15T09:55:52Z</time>
      </trkpt>
      <trkpt lat="45.68388" lon="3.07153">
        <ele>735.40002441406</ele>
        <time>2013-06-15T09:56:18Z</time>
      </trkpt>
      <trkpt lat="45.68413" lon="3.07347">
        <ele>730.59997558594</ele>
        <time>2013-06-15T09:56:41Z</time>
      </trkpt>
      <trkpt lat="45.68374" lon="3.07682">
        <ele>722.59997558594</ele>
        <time>2013-06-15T09:57:16Z</time>
      </trkpt>
      <trkpt lat="45.68387" lon="3.0761">
        <ele>722.59997558594</ele>
        <time>2013-06-15T09:58:15Z</time>
      </trkpt>
      <trkpt lat="45.68418" lon="3.07619">
        <ele>722.59997558594</ele>
        <time>2013-06-15T09:58:25Z</time>
      </trkpt>
      <trkpt lat="45.68427" lon="3.07621">
        <ele>721.59997558594</ele>
        <time>2013-06-15T09:58:27Z</time>
      </trkpt>
      <trkpt lat="45.68447" lon="3.07624">
        <ele>719.79998779297</ele>
        <time>2013-06-15T09:58:31Z</time>
      </trkpt>
      <trkpt lat="45.68475" lon="3.0763">
        <ele>717.40002441406</ele>
        <time>2013-06-15T09:58:36Z</time>
      </trkpt>
      <trkpt lat="45.68532" lon="3.07628">
        <ele>710.79998779297</ele>
        <time>2013-06-15T09:58:46Z</time>
      </trkpt>
      <trkpt lat="45.6859" lon="3.07517">
        <ele>697.59997558594</ele>
        <time>2013-06-15T09:59:12Z</time>
      </trkpt>
      <trkpt lat="45.686" lon="3.07319">
        <ele>708.20001220703</ele>
        <time>2013-06-15T10:00:02Z</time>
      </trkpt>
      <trkpt lat="45.68643" lon="3.07257">
        <ele>712.40002441406</ele>
        <time>2013-06-15T10:00:25Z</time>
      </trkpt>
      <trkpt lat="45.68679" lon="3.07178">
        <ele>716.40002441406</ele>
        <time>2013-06-15T10:00:50Z</time>
      </trkpt>
      <trkpt lat="45.68725" lon="3.07106">
        <ele>716.40002441406</ele>
        <time>2013-06-15T10:01:09Z</time>
      </trkpt>
      <trkpt lat="45.68771" lon="3.0705">
        <ele>707.59997558594</ele>
        <time>2013-06-15T10:01:18Z</time>
      </trkpt>
      <trkpt lat="45.69" lon="3.06629">
        <ele>680.79998779297</ele>
        <time>2013-06-15T10:02:21Z</time>
      </trkpt>
      <trkpt lat="45.69031" lon="3.06678">
        <ele>675.20001220703</ele>
        <time>2013-06-15T10:02:32Z</time>
      </trkpt>
      <trkpt lat="45.69021" lon="3.06793">
        <ele>663.59997558594</ele>
        <time>2013-06-15T10:02:44Z</time>
      </trkpt>
      <trkpt lat="45.68972" lon="3.06969">
        <ele>651</ele>
        <time>2013-06-15T10:03:01Z</time>
      </trkpt>
      <trkpt lat="45.689" lon="3.07325">
        <ele>639.40002441406</ele>
        <time>2013-06-15T10:09:15Z</time>
      </trkpt>
      <trkpt lat="45.68722" lon="3.07576">
        <ele>648</ele>
        <time>2013-06-15T10:10:23Z</time>
      </trkpt>
      <trkpt lat="45.68746" lon="3.07625">
        <ele>648</ele>
        <time>2013-06-15T10:10:34Z</time>
      </trkpt>
      <trkpt lat="45.68835" lon="3.07761">
        <ele>626.20001220703</ele>
        <time>2013-06-15T10:11:08Z</time>
      </trkpt>
      <trkpt lat="45.68862" lon="3.07923">
        <ele>614</ele>
        <time>2013-06-15T10:11:27Z</time>
      </trkpt>
      <trkpt lat="45.689" lon="3.08007">
        <ele>604.59997558594</ele>
        <time>2013-06-15T10:11:35Z</time>
      </trkpt>
      <trkpt lat="45.68984" lon="3.08132">
        <ele>586.79998779297</ele>
        <time>2013-06-15T10:11:47Z</time>
      </trkpt>
      <trkpt lat="45.68999" lon="3.08127">
        <ele>578.40002441406</ele>
        <time>2013-06-15T10:12:19Z</time>
      </trkpt>
      <trkpt lat="45.6904" lon="3.07815">
        <ele>591</ele>
        <time>2013-06-15T10:13:37Z</time>
      </trkpt>
      <trkpt lat="45.68993" lon="3.07528">
        <ele>614.59997558594</ele>
        <time>2013-06-15T10:15:15Z</time>
      </trkpt>
      <trkpt lat="45.68997" lon="3.07377">
        <ele>619</ele>
        <time>2013-06-15T10:16:02Z</time>
      </trkpt>
      <trkpt lat="45.69006" lon="3.0736">
        <ele>620.59997558594</ele>
        <time>2013-06-15T10:16:06Z</time>
      </trkpt>
      <trkpt lat="45.69081" lon="3.07217">
        <ele>620.59997558594</ele>
        <time>2013-06-15T10:17:24Z</time>
      </trkpt>
      <trkpt lat="45.69189" lon="3.07579">
        <ele>595.40002441406</ele>
        <time>2013-06-15T10:17:59Z</time>
      </trkpt>
      <trkpt lat="45.69316" lon="3.07624">
        <ele>577.40002441406</ele>
        <time>2013-06-15T10:18:27Z</time>
      </trkpt>
      <trkpt lat="45.6928" lon="3.07762">
        <ele>570.79998779297</ele>
        <time>2013-06-15T10:19:13Z</time>
      </trkpt>
      <trkpt lat="45.69285" lon="3.07886">
        <ele>570.79998779297</ele>
        <time>2013-06-15T10:19:29Z</time>
      </trkpt>
      <trkpt lat="45.69407" lon="3.07644">
        <ele>585.20001220703</ele>
        <time>2013-06-15T10:20:52Z</time>
      </trkpt>
      <trkpt lat="45.69745" lon="3.07858">
        <ele>633.59997558594</ele>
        <time>2013-06-15T10:24:52Z</time>
      </trkpt>
      <trkpt lat="45.69816" lon="3.07949">
        <ele>650</ele>
        <time>2013-06-15T10:26:01Z</time>
      </trkpt>
      <trkpt lat="45.69863" lon="3.08052">
        <ele>659</ele>
        <time>2013-06-15T10:27:00Z</time>
      </trkpt>
      <trkpt lat="45.6986" lon="3.08063">
        <ele>660.59997558594</ele>
        <time>2013-06-15T10:27:04Z</time>
      </trkpt>
      <trkpt lat="45.69844" lon="3.08115">
        <ele>662.59997558594</ele>
        <time>2013-06-15T10:27:21Z</time>
      </trkpt>
      <trkpt lat="45.69812" lon="3.08263">
        <ele>662.59997558594</ele>
        <time>2013-06-15T10:27:52Z</time>
      </trkpt>
      <trkpt lat="45.69801" lon="3.08393">
        <ele>660.79998779297</ele>
        <time>2013-06-15T10:28:07Z</time>
      </trkpt>
      <trkpt lat="45.6992" lon="3.08592">
        <ele>655.59997558594</ele>
        <time>2013-06-15T10:34:21Z</time>
      </trkpt>
      <trkpt lat="45.69948" lon="3.08625">
        <ele>653</ele>
        <time>2013-06-15T10:34:26Z</time>
      </trkpt>
      <trkpt lat="45.7022" lon="3.08808">
        <ele>638</ele>
        <time>2013-06-15T10:35:10Z</time>
      </trkpt>
      <trkpt lat="45.70278" lon="3.08933">
        <ele>635.20001220703</ele>
        <time>2013-06-15T10:35:29Z</time>
      </trkpt>
      <trkpt lat="45.70479" lon="3.09034">
        <ele>644.40002441406</ele>
        <time>2013-06-15T10:36:38Z</time>
      </trkpt>
      <trkpt lat="45.70682" lon="3.09039">
        <ele>667.59997558594</ele>
        <time>2013-06-15T10:38:28Z</time>
      </trkpt>
      <trkpt lat="45.70709" lon="3.09097">
        <ele>665.40002441406</ele>
        <time>2013-06-15T10:39:45Z</time>
      </trkpt>
      <trkpt lat="45.70752" lon="3.0908">
        <ele>665.40002441406</ele>
        <time>2013-06-15T10:44:47Z</time>
      </trkpt>
      <trkpt lat="45.70788" lon="3.09017">
        <ele>668</ele>
        <time>2013-06-15T10:45:07Z</time>
      </trkpt>
      <trkpt lat="45.71071" lon="3.08975">
        <ele>663.59997558594</ele>
        <time>2013-06-15T10:45:49Z</time>
      </trkpt>
      <trkpt lat="45.71096" lon="3.09084">
        <ele>663.59997558594</ele>
        <time>2013-06-15T10:46:04Z</time>
      </trkpt>
      <trkpt lat="45.71293" lon="3.09375">
        <ele>670</ele>
        <time>2013-06-15T10:47:03Z</time>
      </trkpt>
      <trkpt lat="45.71296" lon="3.0938">
        <ele>670</ele>
        <time>2013-06-15T10:47:04Z</time>
      </trkpt>
      <trkpt lat="45.71311" lon="3.09404">
        <ele>671.79998779297</ele>
        <time>2013-06-15T10:47:11Z</time>
      </trkpt>
      <trkpt lat="45.71324" lon="3.09426">
        <ele>673.79998779297</ele>
        <time>2013-06-15T10:47:18Z</time>
      </trkpt>
      <trkpt lat="45.71351" lon="3.09481">
        <ele>677.40002441406</ele>
        <time>2013-06-15T10:47:35Z</time>
      </trkpt>
      <trkpt lat="45.71356" lon="3.09633">
        <ele>687.20001220703</ele>
        <time>2013-06-15T10:48:21Z</time>
      </trkpt>
      <trkpt lat="45.71414" lon="3.09883">
        <ele>687.20001220703</ele>
        <time>2013-06-15T10:49:05Z</time>
      </trkpt>
      <trkpt lat="45.7161" lon="3.10082">
        <ele>693.59997558594</ele>
        <time>2013-06-15T10:49:56Z</time>
      </trkpt>
      <trkpt lat="45.71589" lon="3.10375">
        <ele>697.79998779297</ele>
        <time>2013-06-15T10:50:41Z</time>
      </trkpt>
      <trkpt lat="45.71687" lon="3.10562">
        <ele>699.79998779297</ele>
        <time>2013-06-15T10:51:14Z</time>
      </trkpt>
      <trkpt lat="45.71764" lon="3.1081">
        <ele>742.40002441406</ele>
        <time>2013-06-15T11:48:43Z</time>
      </trkpt>
      <trkpt lat="45.71688" lon="3.10554">
        <ele>700.59997558594</ele>
        <time>2013-06-15T11:52:53Z</time>
      </trkpt>
      <trkpt lat="45.716" lon="3.10397">
        <ele>698.40002441406</ele>
        <time>2013-06-15T11:53:26Z</time>
      </trkpt>
      <trkpt lat="45.71601" lon="3.10234">
        <ele>698.40002441406</ele>
        <time>2013-06-15T11:53:56Z</time>
      </trkpt>
      <trkpt lat="45.71732" lon="3.10282">
        <ele>697.20001220703</ele>
        <time>2013-06-15T11:55:20Z</time>
      </trkpt>
      <trkpt lat="45.71887" lon="3.10226">
        <ele>677.20001220703</ele>
        <time>2013-06-15T11:56:02Z</time>
      </trkpt>
      <trkpt lat="45.71865" lon="3.10252">
        <ele>676</ele>
        <time>2013-06-15T11:56:37Z</time>
      </trkpt>
      <trkpt lat="45.71874" lon="3.10224">
        <ele>677.40002441406</ele>
        <time>2013-06-15T11:57:39Z</time>
      </trkpt>
      <trkpt lat="45.71885" lon="3.1021">
        <ele>676</ele>
        <time>2013-06-15T11:57:47Z</time>
      </trkpt>
      <trkpt lat="45.71908" lon="3.10231">
        <ele>675.20001220703</ele>
        <time>2013-06-15T12:03:41Z</time>
      </trkpt>
      <trkpt lat="45.71838" lon="3.10497">
        <ele>649.40002441406</ele>
        <time>2013-06-15T12:04:59Z</time>
      </trkpt>
      <trkpt lat="45.71837" lon="3.10436">
        <ele>649.40002441406</ele>
        <time>2013-06-15T12:05:42Z</time>
      </trkpt>
      <trkpt lat="45.71872" lon="3.10441">
        <ele>637.59997558594</ele>
        <time>2013-06-15T12:06:05Z</time>
      </trkpt>
      <trkpt lat="45.72043" lon="3.10281">
        <ele>633.59997558594</ele>
        <time>2013-06-15T12:06:28Z</time>
      </trkpt>
      <trkpt lat="45.71941" lon="3.10425">
        <ele>618.59997558594</ele>
        <time>2013-06-15T12:07:14Z</time>
      </trkpt>
      <trkpt lat="45.72162" lon="3.10377">
        <ele>577</ele>
        <time>2013-06-15T12:08:33Z</time>
      </trkpt>
      <trkpt lat="45.7221" lon="3.1032">
        <ele>576.20001220703</ele>
        <time>2013-06-15T12:08:34Z</time>
      </trkpt>
      <trkpt lat="45.72236" lon="3.10314">
        <ele>570.79998779297</ele>
        <time>2013-06-15T12:08:40Z</time>
      </trkpt>
      <trkpt lat="45.72267" lon="3.10283">
        <ele>564</ele>
        <time>2013-06-15T12:08:52Z</time>
      </trkpt>
      <trkpt lat="45.72336" lon="3.1017">
        <ele>547</ele>
        <time>2013-06-15T12:09:16Z</time>
      </trkpt>
      <trkpt lat="45.72441" lon="3.10222">
        <ele>530.59997558594</ele>
        <time>2013-06-15T12:09:56Z</time>
      </trkpt>
      <trkpt lat="45.72559" lon="3.1014">
        <ele>518.59997558594</ele>
        <time>2013-06-15T12:10:13Z</time>
      </trkpt>
      <trkpt lat="45.72718" lon="3.10082">
        <ele>501.60000610352</ele>
        <time>2013-06-15T12:10:30Z</time>
      </trkpt>
      <trkpt lat="45.72852" lon="3.10109">
        <ele>490</ele>
        <time>2013-06-15T12:10:50Z</time>
      </trkpt>
      <trkpt lat="45.7284" lon="3.10215">
        <ele>492</ele>
        <time>2013-06-15T12:11:02Z</time>
      </trkpt>
      <trkpt lat="45.72863" lon="3.10318">
        <ele>492</ele>
        <time>2013-06-15T12:11:18Z</time>
      </trkpt>
      <trkpt lat="45.72973" lon="3.10491">
        <ele>493.20001220703</ele>
        <time>2013-06-15T12:11:53Z</time>
      </trkpt>
      <trkpt lat="45.73005" lon="3.10598">
        <ele>492</ele>
        <time>2013-06-15T12:12:08Z</time>
      </trkpt>
      <trkpt lat="45.73067" lon="3.10623">
        <ele>492</ele>
        <time>2013-06-15T12:12:24Z</time>
      </trkpt>
      <trkpt lat="45.73112" lon="3.10723">
        <ele>492.39999389648</ele>
        <time>2013-06-15T12:12:45Z</time>
      </trkpt>
      <trkpt lat="45.73191" lon="3.10794">
        <ele>504.79998779297</ele>
        <time>2013-06-15T12:13:27Z</time>
      </trkpt>
      <trkpt lat="45.73196" lon="3.10798">
        <ele>504.79998779297</ele>
        <time>2013-06-15T12:13:31Z</time>
      </trkpt>
      <trkpt lat="45.7322" lon="3.11039">
        <ele>530</ele>
        <time>2013-06-15T12:15:28Z</time>
      </trkpt>
      <trkpt lat="45.73177" lon="3.1127">
        <ele>532</ele>
        <time>2013-06-15T12:16:20Z</time>
      </trkpt>
      <trkpt lat="45.73085" lon="3.11516">
        <ele>547</ele>
        <time>2013-06-15T12:17:26Z</time>
      </trkpt>
      <trkpt lat="45.73053" lon="3.11672">
        <ele>547.40002441406</ele>
        <time>2013-06-15T12:18:03Z</time>
      </trkpt>
      <trkpt lat="45.73065" lon="3.11751">
        <ele>553.40002441406</ele>
        <time>2013-06-15T12:18:29Z</time>
      </trkpt>
      <trkpt lat="45.73065" lon="3.11753">
        <ele>553.40002441406</ele>
        <time>2013-06-15T12:18:30Z</time>
      </trkpt>
      <trkpt lat="45.73008" lon="3.11863">
        <ele>567.40002441406</ele>
        <time>2013-06-15T12:19:36Z</time>
      </trkpt>
      <trkpt lat="45.72964" lon="3.11913">
        <ele>568.40002441406</ele>
        <time>2013-06-15T12:21:01Z</time>
      </trkpt>
      <trkpt lat="45.72986" lon="3.12027">
        <ele>563.79998779297</ele>
        <time>2013-06-15T12:21:14Z</time>
      </trkpt>
      <trkpt lat="45.72995" lon="3.12334">
        <ele>551.79998779297</ele>
        <time>2013-06-15T12:21:44Z</time>
      </trkpt>
      <trkpt lat="45.72985" lon="3.12522">
        <ele>534</ele>
        <time>2013-06-15T12:22:00Z</time>
      </trkpt>
      <trkpt lat="45.72933" lon="3.12562">
        <ele>524.59997558594</ele>
        <time>2013-06-15T12:22:08Z</time>
      </trkpt>
      <trkpt lat="45.72881" lon="3.12708">
        <ele>535.20001220703</ele>
        <time>2013-06-15T12:25:26Z</time>
      </trkpt>
      <trkpt lat="45.72798" lon="3.12804">
        <ele>550.20001220703</ele>
        <time>2013-06-15T12:26:45Z</time>
      </trkpt>
      <trkpt lat="45.72762" lon="3.12851">
        <ele>553.79998779297</ele>
        <time>2013-06-15T12:27:10Z</time>
      </trkpt>
      <trkpt lat="45.72738" lon="3.12871">
        <ele>556.40002441406</ele>
        <time>2013-06-15T12:27:23Z</time>
      </trkpt>
      <trkpt lat="45.72497" lon="3.12957">
        <ele>579.79998779297</ele>
        <time>2013-06-15T12:29:42Z</time>
      </trkpt>
      <trkpt lat="45.72334" lon="3.13019">
        <ele>588.40002441406</ele>
        <time>2013-06-15T12:30:52Z</time>
      </trkpt>
      <trkpt lat="45.72194" lon="3.13109">
        <ele>596.59997558594</ele>
        <time>2013-06-15T12:31:44Z</time>
      </trkpt>
      <trkpt lat="45.72147" lon="3.13077">
        <ele>605</ele>
        <time>2013-06-15T12:34:08Z</time>
      </trkpt>
      <trkpt lat="45.72194" lon="3.13061">
        <ele>611.40002441406</ele>
        <time>2013-06-15T12:34:32Z</time>
      </trkpt>
      <trkpt lat="45.72378" lon="3.12919">
        <ele>623.79998779297</ele>
        <time>2013-06-15T12:36:04Z</time>
      </trkpt>
      <trkpt lat="45.72569" lon="3.12661">
        <ele>636.40002441406</ele>
        <time>2013-06-15T12:37:55Z</time>
      </trkpt>
      <trkpt lat="45.72576" lon="3.12639">
        <ele>636.40002441406</ele>
        <time>2013-06-15T12:38:03Z</time>
      </trkpt>
      <trkpt lat="45.72479" lon="3.1264">
        <ele>649.20001220703</ele>
        <time>2013-06-15T12:39:10Z</time>
      </trkpt>
      <trkpt lat="45.72435" lon="3.12696">
        <ele>649.20001220703</ele>
        <time>2013-06-15T12:39:35Z</time>
      </trkpt>
      <trkpt lat="45.72241" lon="3.12863">
        <ele>646.79998779297</ele>
        <time>2013-06-15T12:40:48Z</time>
      </trkpt>
      <trkpt lat="45.72132" lon="3.12916">
        <ele>651.20001220703</ele>
        <time>2013-06-15T12:41:24Z</time>
      </trkpt>
      <trkpt lat="45.72092" lon="3.1291">
        <ele>651.20001220703</ele>
        <time>2013-06-15T12:41:35Z</time>
      </trkpt>
      <trkpt lat="45.71967" lon="3.12954">
        <ele>661.79998779297</ele>
        <time>2013-06-15T12:42:30Z</time>
      </trkpt>
      <trkpt lat="45.71889" lon="3.12959">
        <ele>661.79998779297</ele>
        <time>2013-06-15T12:43:22Z</time>
      </trkpt>
      <trkpt lat="45.71703" lon="3.12848">
        <ele>659.79998779297</ele>
        <time>2013-06-15T12:44:19Z</time>
      </trkpt>
      <trkpt lat="45.71764" lon="3.12764">
        <ele>672.40002441406</ele>
        <time>2013-06-15T12:45:36Z</time>
      </trkpt>
      <trkpt lat="45.71829" lon="3.12811">
        <ele>679.79998779297</ele>
        <time>2013-06-15T12:46:39Z</time>
      </trkpt>
      <trkpt lat="45.719" lon="3.12835">
        <ele>682.79998779297</ele>
        <time>2013-06-15T12:47:12Z</time>
      </trkpt>
      <trkpt lat="45.71946" lon="3.12833">
        <ele>684.79998779297</ele>
        <time>2013-06-15T12:47:33Z</time>
      </trkpt>
      <trkpt lat="45.72018" lon="3.12701">
        <ele>708</ele>
        <time>2013-06-15T12:49:53Z</time>
      </trkpt>
      <trkpt lat="45.72032" lon="3.12696">
        <ele>710</ele>
        <time>2013-06-15T13:02:47Z</time>
      </trkpt>
      <trkpt lat="45.72102" lon="3.12625">
        <ele>712.20001220703</ele>
        <time>2013-06-15T13:03:28Z</time>
      </trkpt>
      <trkpt lat="45.72286" lon="3.1258">
        <ele>705.40002441406</ele>
        <time>2013-06-15T13:04:17Z</time>
      </trkpt>
      <trkpt lat="45.72327" lon="3.1255">
        <ele>700.59997558594</ele>
        <time>2013-06-15T13:04:26Z</time>
      </trkpt>
      <trkpt lat="45.72351" lon="3.12478">
        <ele>700.59997558594</ele>
        <time>2013-06-15T13:04:42Z</time>
      </trkpt>
      <trkpt lat="45.72323" lon="3.12245">
        <ele>706.79998779297</ele>
        <time>2013-06-15T13:05:41Z</time>
      </trkpt>
      <trkpt lat="45.72259" lon="3.11684">
        <ele>705.20001220703</ele>
        <time>2013-06-15T13:07:21Z</time>
      </trkpt>
      <trkpt lat="45.72222" lon="3.11598">
        <ele>701.59997558594</ele>
        <time>2013-06-15T13:07:31Z</time>
      </trkpt>
      <trkpt lat="45.7215" lon="3.11158">
        <ele>720.59997558594</ele>
        <time>2013-06-15T13:11:04Z</time>
      </trkpt>
      <trkpt lat="45.72155" lon="3.11046">
        <ele>708.59997558594</ele>
        <time>2013-06-15T13:11:26Z</time>
      </trkpt>
      <trkpt lat="45.72107" lon="3.10963">
        <ele>706.79998779297</ele>
        <time>2013-06-15T13:11:40Z</time>
      </trkpt>
      <trkpt lat="45.71927" lon="3.10812">
        <ele>706.59997558594</ele>
        <time>2013-06-15T13:12:19Z</time>
      </trkpt>
      <trkpt lat="45.71729" lon="3.10691">
        <ele>703</ele>
        <time>2013-06-15T13:12:52Z</time>
      </trkpt>
      <trkpt lat="45.71673" lon="3.10514">
        <ele>698.59997558594</ele>
        <time>2013-06-15T13:13:14Z</time>
      </trkpt>
      <trkpt lat="45.71617" lon="3.10427">
        <ele>698.59997558594</ele>
        <time>2013-06-15T13:14:31Z</time>
      </trkpt>
      <trkpt lat="45.716" lon="3.10403">
        <ele>696.59997558594</ele>
        <time>2013-06-15T13:14:37Z</time>
      </trkpt>
      <trkpt lat="45.71464" lon="3.10461">
        <ele>692.40002441406</ele>
        <time>2013-06-15T13:15:01Z</time>
      </trkpt>
      <trkpt lat="45.71336" lon="3.10092">
        <ele>696.40002441406</ele>
        <time>2013-06-15T13:16:18Z</time>
      </trkpt>
      <trkpt lat="45.71271" lon="3.10104">
        <ele>696.40002441406</ele>
        <time>2013-06-15T13:16:35Z</time>
      </trkpt>
      <trkpt lat="45.71194" lon="3.10172">
        <ele>693</ele>
        <time>2013-06-15T13:16:48Z</time>
      </trkpt>
      <trkpt lat="45.7112" lon="3.10302">
        <ele>692.20001220703</ele>
        <time>2013-06-15T13:17:07Z</time>
      </trkpt>
      <trkpt lat="45.70916" lon="3.10514">
        <ele>690.20001220703</ele>
        <time>2013-06-15T13:17:58Z</time>
      </trkpt>
      <trkpt lat="45.7089" lon="3.10541">
        <ele>688.79998779297</ele>
        <time>2013-06-15T13:18:03Z</time>
      </trkpt>
      <trkpt lat="45.70793" lon="3.10634">
        <ele>672.20001220703</ele>
        <time>2013-06-15T13:18:19Z</time>
      </trkpt>
      <trkpt lat="45.70674" lon="3.10713">
        <ele>655.40002441406</ele>
        <time>2013-06-15T13:18:38Z</time>
      </trkpt>
      <trkpt lat="45.70589" lon="3.10895">
        <ele>647.79998779297</ele>
        <time>2013-06-15T13:19:42Z</time>
      </trkpt>
      <trkpt lat="45.70562" lon="3.11024">
        <ele>660.40002441406</ele>
        <time>2013-06-15T13:22:53Z</time>
      </trkpt>
      <trkpt lat="45.70556" lon="3.11083">
        <ele>660.40002441406</ele>
        <time>2013-06-15T13:23:03Z</time>
      </trkpt>
      <trkpt lat="45.70527" lon="3.11156">
        <ele>657.79998779297</ele>
        <time>2013-06-15T13:23:15Z</time>
      </trkpt>
      <trkpt lat="45.705" lon="3.11165">
        <ele>655</ele>
        <time>2013-06-15T13:23:20Z</time>
      </trkpt>
      <trkpt lat="45.70407" lon="3.11119">
        <ele>637.20001220703</ele>
        <time>2013-06-15T13:23:40Z</time>
      </trkpt>
      <trkpt lat="45.70239" lon="3.1125">
        <ele>587.59997558594</ele>
        <time>2013-06-15T13:24:23Z</time>
      </trkpt>
      <trkpt lat="45.70233" lon="3.11148">
        <ele>576.79998779297</ele>
        <time>2013-06-15T13:26:03Z</time>
      </trkpt>
      <trkpt lat="45.70259" lon="3.11062">
        <ele>569.40002441406</ele>
        <time>2013-06-15T13:26:13Z</time>
      </trkpt>
      <trkpt lat="45.70242" lon="3.10976">
        <ele>563.40002441406</ele>
        <time>2013-06-15T13:26:23Z</time>
      </trkpt>
      <trkpt lat="45.70205" lon="3.10983">
        <ele>560.20001220703</ele>
        <time>2013-06-15T13:26:29Z</time>
      </trkpt>
      <trkpt lat="45.70224" lon="3.11091">
        <ele>555.40002441406</ele>
        <time>2013-06-15T13:26:52Z</time>
      </trkpt>
      <trkpt lat="45.70188" lon="3.11136">
        <ele>552.59997558594</ele>
        <time>2013-06-15T13:26:59Z</time>
      </trkpt>
      <trkpt lat="45.70147" lon="3.11173">
        <ele>546.40002441406</ele>
        <time>2013-06-15T13:27:05Z</time>
      </trkpt>
      <trkpt lat="45.70127" lon="3.11242">
        <ele>540.40002441406</ele>
        <time>2013-06-15T13:27:11Z</time>
      </trkpt>
      <trkpt lat="45.70126" lon="3.1126">
        <ele>538.40002441406</ele>
        <time>2013-06-15T13:27:13Z</time>
      </trkpt>
      <trkpt lat="45.70124" lon="3.11281">
        <ele>534.59997558594</ele>
        <time>2013-06-15T13:27:17Z</time>
      </trkpt>
      <trkpt lat="45.69956" lon="3.11422">
        <ele>501.39999389648</ele>
        <time>2013-06-15T13:27:49Z</time>
      </trkpt>
      <trkpt lat="45.69949" lon="3.11424">
        <ele>497.60000610352</ele>
        <time>2013-06-15T13:27:53Z</time>
      </trkpt>
      <trkpt lat="45.70011" lon="3.11493">
        <ele>492.39999389648</ele>
        <time>2013-06-15T13:28:10Z</time>
      </trkpt>
      <trkpt lat="45.70049" lon="3.11549">
        <ele>484.39999389648</ele>
        <time>2013-06-15T13:28:17Z</time>
      </trkpt>
      <trkpt lat="45.70036" lon="3.11614">
        <ele>479</ele>
        <time>2013-06-15T13:28:23Z</time>
      </trkpt>
      <trkpt lat="45.70028" lon="3.11637">
        <ele>475</ele>
        <time>2013-06-15T13:28:27Z</time>
      </trkpt>
      <trkpt lat="45.69845" lon="3.11668">
        <ele>466.79998779297</ele>
        <time>2013-06-15T13:28:57Z</time>
      </trkpt>
      <trkpt lat="45.69835" lon="3.1167">
        <ele>466</ele>
        <time>2013-06-15T13:29:06Z</time>
      </trkpt>
      <trkpt lat="45.69812" lon="3.11915">
        <ele>454.39999389648</ele>
        <time>2013-06-15T13:30:04Z</time>
      </trkpt>
      <trkpt lat="45.69852" lon="3.11824">
        <ele>456.39999389648</ele>
        <time>2013-06-15T13:37:52Z</time>
      </trkpt>
      <trkpt lat="45.69848" lon="3.11853">
        <ele>454.39999389648</ele>
        <time>2013-06-15T13:37:58Z</time>
      </trkpt>
      <trkpt lat="45.69826" lon="3.11864">
        <ele>452.39999389648</ele>
        <time>2013-06-15T13:44:58Z</time>
      </trkpt>
      <trkpt lat="45.69812" lon="3.11894">
        <ele>450.79998779297</ele>
        <time>2013-06-15T13:45:04Z</time>
      </trkpt>
      <trkpt lat="45.69787" lon="3.11909">
        <ele>450.39999389648</ele>
        <time>2013-06-15T13:45:10Z</time>
      </trkpt>
      <trkpt lat="45.69698" lon="3.11897">
        <ele>446.20001220703</ele>
        <time>2013-06-15T13:45:27Z</time>
      </trkpt>
      <trkpt lat="45.69259" lon="3.11999">
        <ele>495.60000610352</ele>
        <time>2013-06-15T13:50:11Z</time>
      </trkpt>
      <trkpt lat="45.6878" lon="3.1233">
        <ele>557.20001220703</ele>
        <time>2013-06-15T14:12:28Z</time>
      </trkpt>
      <trkpt lat="45.68719" lon="3.12502">
        <ele>568</ele>
        <time>2013-06-15T14:14:12Z</time>
      </trkpt>
      <trkpt lat="45.68712" lon="3.12514">
        <ele>568</ele>
        <time>2013-06-15T14:14:18Z</time>
      </trkpt>
      <trkpt lat="45.68657" lon="3.12514">
        <ele>574.20001220703</ele>
        <time>2013-06-15T14:14:47Z</time>
      </trkpt>
      <trkpt lat="45.68648" lon="3.12484">
        <ele>576</ele>
        <time>2013-06-15T14:14:58Z</time>
      </trkpt>
      <trkpt lat="45.68556" lon="3.12427">
        <ele>585</ele>
        <time>2013-06-15T14:15:51Z</time>
      </trkpt>
      <trkpt lat="45.68551" lon="3.12424">
        <ele>585.40002441406</ele>
        <time>2013-06-15T14:15:55Z</time>
      </trkpt>
      <trkpt lat="45.6853" lon="3.1204">
        <ele>633.40002441406</ele>
        <time>2013-06-15T14:22:20Z</time>
      </trkpt>
      <trkpt lat="45.68515" lon="3.11954">
        <ele>637.59997558594</ele>
        <time>2013-06-15T14:22:53Z</time>
      </trkpt>
      <trkpt lat="45.68477" lon="3.11757">
        <ele>640</ele>
        <time>2013-06-15T14:24:00Z</time>
      </trkpt>
      <trkpt lat="45.68386" lon="3.11478">
        <ele>643.59997558594</ele>
        <time>2013-06-15T14:25:06Z</time>
      </trkpt>
      <trkpt lat="45.68332" lon="3.1117">
        <ele>649.79998779297</ele>
        <time>2013-06-15T14:26:18Z</time>
      </trkpt>
      <trkpt lat="45.68267" lon="3.11048">
        <ele>652</ele>
        <time>2013-06-15T14:26:53Z</time>
      </trkpt>
      <trkpt lat="45.68205" lon="3.10911">
        <ele>652.40002441406</ele>
        <time>2013-06-15T14:27:22Z</time>
      </trkpt>
      <trkpt lat="45.68077" lon="3.10231">
        <ele>666.59997558594</ele>
        <time>2013-06-15T14:29:35Z</time>
      </trkpt>
      <trkpt lat="45.68058" lon="3.09978">
        <ele>664.40002441406</ele>
        <time>2013-06-15T14:30:17Z</time>
      </trkpt>
      <trkpt lat="45.68102" lon="3.0955">
        <ele>679</ele>
        <time>2013-06-15T14:32:02Z</time>
      </trkpt>
      <trkpt lat="45.68106" lon="3.09428">
        <ele>679.40002441406</ele>
        <time>2013-06-15T14:32:25Z</time>
      </trkpt>
      <trkpt lat="45.68117" lon="3.09237">
        <ele>682.40002441406</ele>
        <time>2013-06-15T14:32:55Z</time>
      </trkpt>
      <trkpt lat="45.68083" lon="3.08913">
        <ele>683.20001220703</ele>
        <time>2013-06-15T14:33:47Z</time>
      </trkpt>
      <trkpt lat="45.68134" lon="3.08764">
        <ele>687.59997558594</ele>
        <time>2013-06-15T14:34:22Z</time>
      </trkpt>
      <trkpt lat="45.68154" lon="3.08692">
        <ele>691.79998779297</ele>
        <time>2013-06-15T14:34:48Z</time>
      </trkpt>
      <trkpt lat="45.6821" lon="3.08415">
        <ele>706.20001220703</ele>
        <time>2013-06-15T14:36:20Z</time>
      </trkpt>
      <trkpt lat="45.68268" lon="3.08282">
        <ele>710.20001220703</ele>
        <time>2013-06-15T14:36:51Z</time>
      </trkpt>
      <trkpt lat="45.68328" lon="3.08043">
        <ele>712.59997558594</ele>
        <time>2013-06-15T14:37:33Z</time>
      </trkpt>
      <trkpt lat="45.68407" lon="3.07469">
        <ele>720.40002441406</ele>
        <time>2013-06-15T14:39:30Z</time>
      </trkpt>
      <trkpt lat="45.6839" lon="3.0701">
        <ele>733.40002441406</ele>
        <time>2013-06-15T14:54:19Z</time>
      </trkpt>
      <trkpt lat="45.68344" lon="3.06993">
        <ele>733.40002441406</ele>
        <time>2013-06-15T14:54:38Z</time>
      </trkpt>
      <trkpt lat="45.68459" lon="3.06785">
        <ele>741.20001220703</ele>
        <time>2013-06-15T14:55:33Z</time>
      </trkpt>
      <trkpt lat="45.68466" lon="3.06481">
        <ele>754.59997558594</ele>
        <time>2013-06-15T14:56:54Z</time>
      </trkpt>
      <trkpt lat="45.68446" lon="3.06085">
        <ele>766.20001220703</ele>
        <time>2013-06-15T14:58:36Z</time>
      </trkpt>
      <trkpt lat="45.68473" lon="3.05685">
        <ele>784</ele>
        <time>2013-06-15T15:00:16Z</time>
      </trkpt>
      <trkpt lat="45.68472" lon="3.05671">
        <ele>784</ele>
        <time>2013-06-15T15:00:20Z</time>
      </trkpt>
      <trkpt lat="45.68392" lon="3.05494">
        <ele>798.20001220703</ele>
        <time>2013-06-15T15:01:34Z</time>
      </trkpt>
      <trkpt lat="45.68337" lon="3.05442">
        <ele>805.20001220703</ele>
        <time>2013-06-15T15:02:18Z</time>
      </trkpt>
      <trkpt lat="45.68284" lon="3.05407">
        <ele>808</ele>
        <time>2013-06-15T15:02:48Z</time>
      </trkpt>
      <trkpt lat="45.68213" lon="3.05133">
        <ele>825</ele>
        <time>2013-06-15T15:04:24Z</time>
      </trkpt>
      <trkpt lat="45.68092" lon="3.05042">
        <ele>830.79998779297</ele>
        <time>2013-06-15T15:05:12Z</time>
      </trkpt>
      <trkpt lat="45.67999" lon="3.04935">
        <ele>838.20001220703</ele>
        <time>2013-06-15T15:10:09Z</time>
      </trkpt>
      <trkpt lat="45.67978" lon="3.04852">
        <ele>837.59997558594</ele>
        <time>2013-06-15T15:10:28Z</time>
      </trkpt>
      <trkpt lat="45.67991" lon="3.04814">
        <ele>833.59997558594</ele>
        <time>2013-06-15T15:10:34Z</time>
      </trkpt>
      <trkpt lat="45.67987" lon="3.04769">
        <ele>829.20001220703</ele>
        <time>2013-06-15T15:10:39Z</time>
      </trkpt>
      <trkpt lat="45.67946" lon="3.04635">
        <ele>822.79998779297</ele>
        <time>2013-06-15T15:11:01Z</time>
      </trkpt>
      <trkpt lat="45.67822" lon="3.04444">
        <ele>813.20001220703</ele>
        <time>2013-06-15T15:11:41Z</time>
      </trkpt>
      <trkpt lat="45.6775" lon="3.04278">
        <ele>815</ele>
        <time>2013-06-15T15:12:29Z</time>
      </trkpt>
      <trkpt lat="45.67717" lon="3.04206">
        <ele>813.40002441406</ele>
        <time>2013-06-15T15:12:40Z</time>
      </trkpt>
      <trkpt lat="45.67702" lon="3.04163">
        <ele>811.59997558594</ele>
        <time>2013-06-15T15:12:45Z</time>
      </trkpt>
      <trkpt lat="45.6761" lon="3.03897">
        <ele>789.59997558594</ele>
        <time>2013-06-15T15:13:17Z</time>
      </trkpt>
      <trkpt lat="45.67476" lon="3.03732">
        <ele>770.20001220703</ele>
        <time>2013-06-15T15:13:51Z</time>
      </trkpt>
      <trkpt lat="45.6757" lon="3.03453">
        <ele>767.59997558594</ele>
        <time>2013-06-15T15:14:59Z</time>
      </trkpt>
      <trkpt lat="45.67591" lon="3.0327">
        <ele>759.20001220703</ele>
        <time>2013-06-15T15:15:20Z</time>
      </trkpt>
      <trkpt lat="45.67551" lon="3.03122">
        <ele>751.59997558594</ele>
        <time>2013-06-15T15:15:41Z</time>
      </trkpt>
      <trkpt lat="45.67501" lon="3.03155">
        <ele>761.20001220703</ele>
        <time>2013-06-15T15:16:25Z</time>
      </trkpt>
      <trkpt lat="45.67437" lon="3.03031">
        <ele>775.79998779297</ele>
        <time>2013-06-15T15:17:42Z</time>
      </trkpt>
      <trkpt lat="45.67296" lon="3.02869">
        <ele>793.20001220703</ele>
        <time>2013-06-15T15:19:35Z</time>
      </trkpt>
      <trkpt lat="45.67307" lon="3.02752">
        <ele>801.79998779297</ele>
        <time>2013-06-15T15:20:24Z</time>
      </trkpt>
      <trkpt lat="45.67301" lon="3.02681">
        <ele>807.20001220703</ele>
        <time>2013-06-15T15:28:44Z</time>
      </trkpt>
      <trkpt lat="45.67256" lon="3.02631">
        <ele>807.20001220703</ele>
        <time>2013-06-15T15:29:03Z</time>
      </trkpt>
      <trkpt lat="45.6721" lon="3.02572">
        <ele>803.20001220703</ele>
        <time>2013-06-15T15:29:12Z</time>
      </trkpt>
      <trkpt lat="45.67095" lon="3.02557">
        <ele>797.79998779297</ele>
        <time>2013-06-15T15:29:30Z</time>
      </trkpt>
      <trkpt lat="45.66959" lon="3.02612">
        <ele>797.79998779297</ele>
        <time>2013-06-15T15:29:58Z</time>
      </trkpt>
      <trkpt lat="45.67042" lon="3.02421">
        <ele>808.59997558594</ele>
        <time>2013-06-15T15:31:02Z</time>
      </trkpt>
      <trkpt lat="45.66978" lon="3.02358">
        <ele>819.20001220703</ele>
        <time>2013-06-15T15:31:47Z</time>
      </trkpt>
      <trkpt lat="45.66873" lon="3.02291">
        <ele>821.40002441406</ele>
        <time>2013-06-15T15:32:26Z</time>
      </trkpt>
      <trkpt lat="45.66835" lon="3.02263">
        <ele>817.59997558594</ele>
        <time>2013-06-15T15:32:33Z</time>
      </trkpt>
      <trkpt lat="45.66839" lon="3.02112">
        <ele>813.79998779297</ele>
        <time>2013-06-15T15:33:44Z</time>
      </trkpt>
      <trkpt lat="45.66917" lon="3.01836">
        <ele>815.79998779297</ele>
        <time>2013-06-15T15:34:44Z</time>
      </trkpt>
      <trkpt lat="45.66924" lon="3.01802">
        <ele>815</ele>
        <time>2013-06-15T15:34:49Z</time>
      </trkpt>
      <trkpt lat="45.66935" lon="3.01747">
        <ele>811.40002441406</ele>
        <time>2013-06-15T15:34:56Z</time>
      </trkpt>
      <trkpt lat="45.66929" lon="3.01587">
        <ele>807.20001220703</ele>
        <time>2013-06-15T15:35:18Z</time>
      </trkpt>
      <trkpt lat="45.67122" lon="3.01364">
        <ele>803</ele>
        <time>2013-06-15T15:36:07Z</time>
      </trkpt>
      <trkpt lat="45.67144" lon="3.013">
        <ele>800.79998779297</ele>
        <time>2013-06-15T15:36:17Z</time>
      </trkpt>
      <trkpt lat="45.67154" lon="3.01182">
        <ele>800.79998779297</ele>
        <time>2013-06-15T15:36:33Z</time>
      </trkpt>
      <trkpt lat="45.6725" lon="3.01022">
        <ele>806.79998779297</ele>
        <time>2013-06-15T15:37:22Z</time>
      </trkpt>
      <trkpt lat="45.67224" lon="3.00865">
        <ele>809</ele>
        <time>2013-06-15T15:43:25Z</time>
      </trkpt>
      <trkpt lat="45.67245" lon="3.0074">
        <ele>811</ele>
        <time>2013-06-15T15:43:46Z</time>
      </trkpt>
      <trkpt lat="45.67173" lon="3.00703">
        <ele>811</ele>
        <time>2013-06-15T15:46:05Z</time>
      </trkpt>
      <trkpt lat="45.67158" lon="3.00644">
        <ele>811</ele>
        <time>2013-06-15T15:46:20Z</time>
      </trkpt>
      <trkpt lat="45.67162" lon="3.00602">
        <ele>813</ele>
        <time>2013-06-15T15:46:28Z</time>
      </trkpt>
      <trkpt lat="45.67179" lon="3.00552">
        <ele>813</ele>
        <time>2013-06-15T15:46:38Z</time>
      </trkpt>
      <trkpt lat="45.6724" lon="3.00476">
        <ele>813</ele>
        <time>2013-06-15T15:46:55Z</time>
      </trkpt>
      <trkpt lat="45.67229" lon="3.00358">
        <ele>815</ele>
        <time>2013-06-15T15:47:13Z</time>
      </trkpt>
      <trkpt lat="45.67089" lon="2.99968">
        <ele>825.79998779297</ele>
        <time>2013-06-15T15:48:31Z</time>
      </trkpt>
      <trkpt lat="45.6696" lon="3.00075">
        <ele>825.20001220703</ele>
        <time>2013-06-15T15:49:06Z</time>
      </trkpt>
      <trkpt lat="45.66953" lon="3.0011">
        <ele>822.59997558594</ele>
        <time>2013-06-15T15:49:14Z</time>
      </trkpt>
      <trkpt lat="45.66944" lon="3.00112">
        <ele>821.20001220703</ele>
        <time>2013-06-15T15:49:20Z</time>
      </trkpt>
    </trkseg>
  </trk>
</gpx>